Time,TemperatureF,DewpointF,PressureIn,WindDirection,WindDirectionDegrees,WindSpeedMPH,WindSpeedGustMPH,Humidity,HourlyPrecipIn,Conditions,Clouds,dailyrainin,SolarRadiationWatts/m^2,SoftwareType,DateUTC
2013-05-29 00:00:00,65.9,54.6,29.78,SW,217,0.0,0.0,67,0.00,,,0.00,0,Wunderground v.1.15,2013-05-29 07:00:00,
2013-05-29 00:06:00,65.7,54.4,29.78,SW,217,0.0,6.0,67,0.00,,,0.00,0,Wunderground v.1.15,2013-05-29 07:06:00,
2013-05-29 00:12:00,65.5,54.2,29.78,SW,217,0.0,0.0,67,0.00,,,0.00,0,Wunderground v.1.15,2013-05-29 07:12:00,
2013-05-29 00:18:00,65.4,54.6,29.79,SW,217,0.0,0.0,68,0.00,,,0.00,0,Wunderground v.1.15,2013-05-29 07:18:00,
2013-05-29 00:24:00,65.4,54.6,29.80,SW,217,0.0,0.0,68,0.00,,,0.00,0,Wunderground v.1.15,2013-05-29 07:24:00,
2013-05-29 00:30:00,65.6,55.2,29.80,SW,217,0.0,0.0,69,0.00,,,0.00,0,Wunderground v.1.15,2013-05-29 07:30:00,
2013-05-29 00:36:00,65.8,54.9,29.79,SSW,211,0.0,0.0,68,0.00,,,0.00,0,Wunderground v.1.15,2013-05-29 07:36:00,
2013-05-29 00:42:00,65.6,54.8,29.79,SSW,209,1.0,1.0,68,0.00,,,0.00,0,Wunderground v.1.15,2013-05-29 07:42:00,
2013-05-29 00:48:00,65.3,54.9,29.79,SSW,209,0.0,1.0,69,0.00,,,0.00,0,Wunderground v.1.15,2013-05-29 07:48:00,
2013-05-29 00:54:00,65.1,54.7,29.78,SSW,209,0.0,0.0,69,0.00,,,0.00,0,Wunderground v.1.15,2013-05-29 07:54:00,
2013-05-29 01:00:00,65.0,54.6,29.78,SSW,209,0.0,0.0,69,0.00,,,0.00,0,Wunderground v.1.15,2013-05-29 08:00:00,
2013-05-29 01:06:00,64.9,54.9,29.78,SSW,209,0.0,5.0,70,0.00,,,0.00,0,Wunderground v.1.15,2013-05-29 08:06:00,
2013-05-29 01:12:00,64.9,54.9,29.78,SSW,209,0.0,0.0,70,0.00,,,0.00,0,Wunderground v.1.15,2013-05-29 08:12:00,
2013-05-29 01:18:00,64.8,54.4,29.79,SSW,209,0.0,0.0,69,0.00,,,0.00,0,Wunderground v.1.15,2013-05-29 08:18:00,
2013-05-29 01:24:00,64.8,54.4,29.79,SSW,209,0.0,0.0,69,0.00,,,0.00,0,Wunderground v.1.15,2013-05-29 08:24:00,
2013-05-29 01:30:00,64.8,54.0,29.79,SSW,209,0.0,0.0,68,0.00,,,0.00,0,Wunderground v.1.15,2013-05-29 08:30:00,
2013-05-29 01:36:00,65.1,53.5,29.78,SSW,209,0.0,0.0,66,0.00,,,0.00,0,Wunderground v.1.15,2013-05-29 08:36:00,
2013-05-29 01:42:00,65.3,53.6,29.78,SSW,209,0.0,0.0,66,0.00,,,0.00,0,Wunderground v.1.15,2013-05-29 08:42:00,
2013-05-29 01:48:00,65.5,53.8,29.78,SSW,209,0.0,0.0,66,0.00,,,0.00,0,Wunderground v.1.15,2013-05-29 08:48:00,
2013-05-29 01:54:00,65.7,53.2,29.78,SSW,209,0.0,2.0,64,0.00,,,0.00,0,Wunderground v.1.15,2013-05-29 08:54:00,
2013-05-29 02:00:00,65.9,52.9,29.78,SSW,209,0.0,0.0,63,0.00,,,0.00,0,Wunderground v.1.15,2013-05-29 09:00:00,
2013-05-29 02:06:00,66.0,52.6,29.78,SSW,209,0.0,5.0,62,0.00,,,0.00,0,Wunderground v.1.15,2013-05-29 09:06:00,
2013-05-29 02:12:00,66.1,52.7,29.78,SSW,202,1.0,4.0,62,0.00,,,0.00,0,Wunderground v.1.15,2013-05-29 09:12:00,
2013-05-29 02:18:00,65.9,52.5,29.78,South,191,2.0,5.0,62,0.00,,,0.00,0,Wunderground v.1.15,2013-05-29 09:18:00,
2013-05-29 02:24:00,65.9,52.1,29.78,South,191,1.0,2.0,61,0.00,,,0.00,0,Wunderground v.1.15,2013-05-29 09:24:00,
2013-05-29 02:30:00,65.9,52.1,29.78,SSW,192,0.0,2.0,61,0.00,,,0.00,0,Wunderground v.1.15,2013-05-29 09:30:00,
2013-05-29 02:36:00,66.3,51.5,29.78,SSW,204,2.0,4.0,59,0.00,,,0.00,0,Wunderground v.1.15,2013-05-29 09:36:00,
2013-05-29 02:42:00,67.0,50.3,29.78,SW,221,3.0,3.0,55,0.00,,,0.00,0,Wunderground v.1.15,2013-05-29 09:42:00,
2013-05-29 02:48:00,67.7,50.5,29.79,SW,221,2.0,3.0,54,0.00,,,0.00,0,Wunderground v.1.15,2013-05-29 09:48:00,
2013-05-29 02:54:00,68.0,50.7,29.78,SW,221,0.0,1.0,54,0.00,,,0.00,0,Wunderground v.1.15,2013-05-29 09:54:00,
2013-05-29 03:00:00,68.0,50.7,29.78,SW,221,0.0,0.0,54,0.00,,,0.00,0,Wunderground v.1.15,2013-05-29 10:00:00,
2013-05-29 03:06:00,68.0,51.2,29.78,SW,221,1.0,3.0,55,0.00,,,0.00,0,Wunderground v.1.15,2013-05-29 10:06:00,
2013-05-29 03:12:00,68.1,50.8,29.78,SW,222,3.0,5.0,54,0.00,,,0.00,0,Wunderground v.1.15,2013-05-29 10:12:00,
2013-05-29 03:18:00,68.3,51.0,29.78,WSW,243,5.0,15.0,54,0.00,,,0.00,0,Wunderground v.1.15,2013-05-29 10:18:00,
2013-05-29 03:24:00,68.9,51.6,29.78,West,273,7.0,11.0,54,0.00,,,0.00,0,Wunderground v.1.15,2013-05-29 10:24:00,
2013-05-29 03:30:00,69.0,51.2,29.78,WSW,257,7.0,7.0,53,0.00,,,0.00,0,Wunderground v.1.15,2013-05-29 10:30:00,
2013-05-29 03:36:00,68.9,51.1,29.78,WSW,250,7.0,8.0,53,0.00,,,0.00,0,Wunderground v.1.15,2013-05-29 10:36:00,
2013-05-29 03:42:00,68.5,51.2,29.78,WSW,244,6.0,6.0,54,0.00,,,0.00,0,Wunderground v.1.15,2013-05-29 10:42:00,
2013-05-29 03:48:00,68.2,51.4,29.78,WSW,254,4.0,6.0,55,0.00,,,0.00,0,Wunderground v.1.15,2013-05-29 10:48:00,
2013-05-29 03:54:00,68.0,51.2,29.78,SW,219,2.0,6.0,55,0.00,,,0.00,0,Wunderground v.1.15,2013-05-29 10:54:00,
2013-05-29 04:00:00,67.7,50.9,29.77,SW,217,1.0,1.0,55,0.00,,,0.00,0,Wunderground v.1.15,2013-05-29 11:00:00,
2013-05-29 04:06:00,67.5,51.2,29.78,SSW,201,0.0,6.0,56,0.00,,,0.00,0,Wunderground v.1.15,2013-05-29 11:06:00,
2013-05-29 04:12:00,67.4,52.6,29.78,SSW,200,0.0,0.0,59,0.00,,,0.00,0,Wunderground v.1.15,2013-05-29 11:12:00,
2013-05-29 04:18:00,67.2,52.8,29.78,SSE,156,1.0,2.0,60,0.00,,,0.00,0,Wunderground v.1.15,2013-05-29 11:18:00,
2013-05-29 04:24:00,67.0,52.7,29.78,South,172,1.0,1.0,60,0.00,,,0.00,0,Wunderground v.1.15,2013-05-29 11:24:00,
2013-05-29 04:30:00,66.6,52.7,29.78,SW,220,1.0,2.0,61,0.00,,,0.00,0,Wunderground v.1.15,2013-05-29 11:30:00,
2013-05-29 04:36:00,66.1,52.7,29.78,SW,230,3.0,5.0,62,0.00,,,0.00,0,Wunderground v.1.15,2013-05-29 11:36:00,
2013-05-29 04:42:00,65.7,52.8,29.78,SW,231,2.0,3.0,63,0.00,,,0.00,0,Wunderground v.1.15,2013-05-29 11:42:00,
2013-05-29 04:48:00,65.4,52.9,29.78,SW,232,1.0,5.0,64,0.00,,,0.00,0,Wunderground v.1.15,2013-05-29 11:48:00,
2013-05-29 04:54:00,65.2,52.3,29.78,SW,231,2.0,4.0,63,0.00,,,0.00,0,Wunderground v.1.15,2013-05-29 11:54:00,
2013-05-29 05:00:00,65.0,52.5,29.78,WSW,250,4.0,5.0,64,0.00,,,0.00,0,Wunderground v.1.15,2013-05-29 12:00:00,
2013-05-29 05:06:00,64.8,52.3,29.78,WSW,238,7.0,16.0,64,0.00,,,0.00,0,Wunderground v.1.15,2013-05-29 12:06:00,
2013-05-29 05:12:00,64.6,52.1,29.78,WSW,246,7.0,10.0,64,0.00,,,0.00,0,Wunderground v.1.15,2013-05-29 12:12:00,
2013-05-29 05:18:00,64.5,52.0,29.78,WSW,248,5.0,10.0,64,0.00,,,0.00,0,Wunderground v.1.15,2013-05-29 12:18:00,
2013-05-29 05:24:00,64.3,51.9,29.78,WSW,242,5.0,10.0,64,0.00,,,0.00,0,Wunderground v.1.15,2013-05-29 12:24:00,
2013-05-29 05:30:00,64.8,51.9,29.78,West,263,5.0,5.0,63,0.00,,,0.00,0,Wunderground v.1.15,2013-05-29 12:30:00,
2013-05-29 05:36:00,65.1,52.2,29.78,WSW,242,3.0,6.0,63,0.00,,,0.00,0,Wunderground v.1.15,2013-05-29 12:36:00,
2013-05-29 05:42:00,65.1,52.2,29.78,SW,221,1.0,2.0,63,0.00,,,0.00,0,Wunderground v.1.15,2013-05-29 12:42:00,
2013-05-29 05:48:00,64.8,51.9,29.78,SW,221,0.0,2.0,63,0.00,,,0.00,5,Wunderground v.1.15,2013-05-29 12:48:00,
2013-05-29 05:54:00,64.1,51.7,29.78,SSW,207,0.0,0.0,64,0.00,,,0.00,14,Wunderground v.1.15,2013-05-29 12:54:00,
2013-05-29 06:00:00,63.4,51.4,29.78,SSW,198,0.0,2.0,65,0.00,,,0.00,14,Wunderground v.1.15,2013-05-29 13:00:00,
2013-05-29 06:06:00,63.0,51.5,29.78,SSW,198,0.0,12.0,66,0.00,,,0.00,14,Wunderground v.1.15,2013-05-29 13:06:00,
2013-05-29 06:12:00,62.9,51.8,29.78,SSW,198,0.0,0.0,67,0.00,,,0.00,18,Wunderground v.1.15,2013-05-29 13:12:00,
2013-05-29 06:18:00,62.9,51.8,29.79,SSW,198,0.0,0.0,67,0.00,,,0.00,18,Wunderground v.1.15,2013-05-29 13:18:00,
2013-05-29 06:24:00,62.7,51.6,29.79,SSW,198,0.0,0.0,67,0.00,,,0.00,19,Wunderground v.1.15,2013-05-29 13:24:00,
2013-05-29 06:30:00,62.3,51.6,29.80,SSW,198,0.0,0.0,68,0.00,,,0.00,25,Wunderground v.1.15,2013-05-29 13:30:00,
2013-05-29 06:36:00,62.0,51.7,29.80,SSW,198,0.0,0.0,69,0.00,,,0.00,39,Wunderground v.1.15,2013-05-29 13:36:00,
2013-05-29 06:42:00,61.9,52.0,29.80,SSW,196,0.0,0.0,70,0.00,,,0.00,40,Wunderground v.1.15,2013-05-29 13:42:00,
2013-05-29 06:48:00,62.1,52.2,29.80,SSW,207,0.0,0.0,70,0.00,,,0.00,54,Wunderground v.1.15,2013-05-29 13:48:00,
2013-05-29 06:54:00,62.5,52.6,29.80,SSW,211,0.0,0.0,70,0.00,,,0.00,69,Wunderground v.1.15,2013-05-29 13:54:00,
2013-05-29 07:00:00,63.1,52.8,29.80,SW,218,1.0,1.0,69,0.00,,,0.00,60,Wunderground v.1.15,2013-05-29 14:00:00,
2013-05-29 07:06:00,63.5,52.7,29.81,SW,218,1.0,13.0,68,0.00,,,0.00,44,Wunderground v.1.15,2013-05-29 14:06:00,
2013-05-29 07:12:00,63.5,53.1,29.81,SW,219,0.0,0.0,69,0.00,,,0.00,47,Wunderground v.1.15,2013-05-29 14:12:00,
2013-05-29 07:18:00,63.5,53.1,29.81,SSE,159,1.0,3.0,69,0.00,,,0.00,35,Wunderground v.1.15,2013-05-29 14:18:00,
2013-05-29 07:24:00,63.8,53.0,29.81,SSW,198,3.0,3.0,68,0.00,,,0.00,39,Wunderground v.1.15,2013-05-29 14:24:00,
2013-05-29 07:30:00,65.0,53.4,29.81,WSW,249,4.0,4.0,66,0.00,,,0.00,40,Wunderground v.1.15,2013-05-29 14:30:00,
2013-05-29 07:36:00,65.8,53.3,29.81,WSW,242,3.0,13.0,64,0.00,,,0.00,40,Wunderground v.1.15,2013-05-29 14:36:00,
2013-05-29 07:42:00,66.4,53.4,29.82,SW,228,3.0,9.0,63,0.00,,,0.00,290,Wunderground v.1.15,2013-05-29 14:42:00,
2013-05-29 07:48:00,66.9,53.5,29.82,West,275,2.0,9.0,62,0.00,,,0.00,309,Wunderground v.1.15,2013-05-29 14:48:00,
2013-05-29 07:54:00,67.5,53.6,29.81,WSW,258,2.0,7.0,61,0.00,,,0.00,327,Wunderground v.1.15,2013-05-29 14:54:00,
2013-05-29 08:00:00,68.2,53.8,29.81,WSW,244,4.0,4.0,60,0.00,,,0.00,346,Wunderground v.1.15,2013-05-29 15:00:00,
2013-05-29 08:06:00,68.4,53.5,29.82,West,265,4.0,8.0,59,0.00,,,0.00,366,Wunderground v.1.15,2013-05-29 15:06:00,
2013-05-29 08:12:00,68.9,54.0,29.82,NW,309,3.0,3.0,59,0.00,,,0.00,383,Wunderground v.1.15,2013-05-29 15:12:00,
2013-05-29 08:18:00,69.0,53.1,29.82,West,277,4.0,4.0,57,0.00,,,0.00,404,Wunderground v.1.15,2013-05-29 15:18:00,
2013-05-29 08:24:00,69.6,54.2,29.82,WSW,242,4.0,10.0,58,0.00,,,0.00,422,Wunderground v.1.15,2013-05-29 15:24:00,
2013-05-29 08:30:00,70.0,53.6,29.82,WSW,246,5.0,7.0,56,0.00,,,0.00,443,Wunderground v.1.15,2013-05-29 15:30:00,
2013-05-29 08:36:00,70.3,53.9,29.83,WSW,238,4.0,7.0,56,0.00,,,0.00,462,Wunderground v.1.15,2013-05-29 15:36:00,
2013-05-29 08:42:00,70.8,53.3,29.82,NW,308,2.0,6.0,54,0.00,,,0.00,483,Wunderground v.1.15,2013-05-29 15:42:00,
2013-05-29 08:48:00,70.7,52.7,29.82,West,277,4.0,10.0,53,0.00,,,0.00,503,Wunderground v.1.15,2013-05-29 15:48:00,
2013-05-29 08:54:00,71.1,53.1,29.82,NW,311,3.0,5.0,53,0.00,,,0.00,517,Wunderground v.1.15,2013-05-29 15:54:00,
2013-05-29 09:00:00,71.9,53.8,29.82,WSW,248,2.0,2.0,53,0.00,,,0.00,536,Wunderground v.1.15,2013-05-29 16:00:00,
2013-05-29 09:06:00,71.7,52.6,29.82,West,280,3.0,6.0,51,0.00,,,0.00,555,Wunderground v.1.15,2013-05-29 16:06:00,
2013-05-29 09:12:00,72.0,52.3,29.83,SW,231,4.0,4.0,50,0.00,,,0.00,575,Wunderground v.1.15,2013-05-29 16:12:00,
2013-05-29 09:18:00,72.2,52.5,29.83,WNW,285,4.0,5.0,50,0.00,,,0.00,592,Wunderground v.1.15,2013-05-29 16:18:00,
2013-05-29 09:24:00,71.8,52.7,29.83,NW,312,2.0,6.0,51,0.00,,,0.00,612,Wunderground v.1.15,2013-05-29 16:24:00,
2013-05-29 09:30:00,72.2,53.1,29.83,NW,313,2.0,3.0,51,0.00,,,0.00,628,Wunderground v.1.15,2013-05-29 16:30:00,
2013-05-29 09:36:00,72.6,51.8,29.83,SW,236,1.0,3.0,48,0.00,,,0.00,647,Wunderground v.1.15,2013-05-29 16:36:00,
2013-05-29 09:42:00,73.0,52.1,29.83,NW,306,0.0,1.0,48,0.00,,,0.00,687,Wunderground v.1.15,2013-05-29 16:42:00,
2013-05-29 09:48:00,73.2,52.9,29.83,NW,305,0.0,1.0,49,0.00,,,0.00,691,Wunderground v.1.15,2013-05-29 16:48:00,
2013-05-29 09:54:00,74.1,52.6,29.83,SW,227,0.0,0.0,47,0.00,,,0.00,710,Wunderground v.1.15,2013-05-29 16:54:00,
2013-05-29 10:00:00,74.0,52.5,29.82,South,188,0.0,0.0,47,0.00,,,0.00,719,Wunderground v.1.15,2013-05-29 17:00:00,
2013-05-29 10:06:00,74.5,52.9,29.82,SSE,164,0.0,16.0,47,0.00,,,0.00,742,Wunderground v.1.15,2013-05-29 17:06:00,
2013-05-29 10:12:00,74.7,52.5,29.83,South,175,0.0,1.0,46,0.00,,,0.00,823,Wunderground v.1.15,2013-05-29 17:12:00,
2013-05-29 10:18:00,74.8,53.2,29.83,South,177,0.0,1.0,47,0.00,,,0.00,886,Wunderground v.1.15,2013-05-29 17:18:00,
2013-05-29 10:24:00,75.4,53.8,29.83,South,182,0.0,0.0,47,0.00,,,0.00,1005,Wunderground v.1.15,2013-05-29 17:24:00,
2013-05-29 10:30:00,75.3,53.1,29.83,South,184,0.0,0.0,46,0.00,,,0.00,471,Wunderground v.1.15,2013-05-29 17:30:00,
2013-05-29 10:36:00,75.1,52.9,29.83,NNE,14,0.0,3.0,46,0.00,,,0.00,346,Wunderground v.1.15,2013-05-29 17:36:00,
2013-05-29 10:42:00,75.3,53.7,29.83,East,93,2.0,6.0,47,0.00,,,0.00,555,Wunderground v.1.15,2013-05-29 17:42:00,
2013-05-29 10:48:00,76.0,52.5,29.83,NW,326,3.0,6.0,44,0.00,,,0.00,895,Wunderground v.1.15,2013-05-29 17:48:00,
2013-05-29 10:54:00,75.5,52.7,29.83,NNE,26,5.0,9.0,45,0.00,,,0.00,888,Wunderground v.1.15,2013-05-29 17:54:00,
2013-05-29 11:00:00,75.7,52.2,29.83,NNE,16,4.0,4.0,44,0.00,,,0.00,889,Wunderground v.1.15,2013-05-29 18:00:00,
2013-05-29 11:06:00,76.2,53.3,29.83,ENE,63,1.0,11.0,45,0.00,,,0.00,276,Wunderground v.1.15,2013-05-29 18:06:00,
2013-05-29 11:12:00,75.8,52.9,29.83,NW,319,0.0,2.0,45,0.00,,,0.00,877,Wunderground v.1.15,2013-05-29 18:12:00,
2013-05-29 11:18:00,76.1,53.8,29.83,North,10,0.0,2.0,46,0.00,,,0.00,809,Wunderground v.1.15,2013-05-29 18:18:00,
2013-05-29 11:24:00,76.2,52.7,29.83,North,5,0.0,0.0,44,0.00,,,0.00,496,Wunderground v.1.15,2013-05-29 18:24:00,
2013-05-29 11:30:00,75.9,53.0,29.83,ESE,102,0.0,2.0,45,0.00,,,0.00,847,Wunderground v.1.15,2013-05-29 18:30:00,
2013-05-29 11:36:00,76.3,52.2,29.83,NE,34,1.0,2.0,43,0.00,,,0.00,1011,Wunderground v.1.15,2013-05-29 18:36:00,
2013-05-29 11:42:00,77.0,53.4,29.83,ENE,74,1.0,1.0,44,0.00,,,0.00,923,Wunderground v.1.15,2013-05-29 18:42:00,
2013-05-29 11:48:00,77.8,53.5,29.83,NE,36,1.0,1.0,43,0.00,,,0.00,1035,Wunderground v.1.15,2013-05-29 18:48:00,
2013-05-29 11:54:00,78.2,52.6,29.83,ENE,75,0.0,1.0,41,0.00,,,0.00,1055,Wunderground v.1.15,2013-05-29 18:54:00,
2013-05-29 12:00:00,78.3,53.3,29.83,NE,40,0.0,0.0,42,0.00,,,0.00,1060,Wunderground v.1.15,2013-05-29 19:00:00,
2013-05-29 12:06:00,78.3,54.0,29.83,NW,315,0.0,12.0,43,0.00,,,0.00,1007,Wunderground v.1.15,2013-05-29 19:06:00,
2013-05-29 12:12:00,77.6,54.0,29.83,NNW,329,0.0,1.0,44,0.00,,,0.00,241,Wunderground v.1.15,2013-05-29 19:12:00,
2013-05-29 12:18:00,77.3,53.7,29.83,NE,54,0.0,1.0,44,0.00,,,0.00,1134,Wunderground v.1.15,2013-05-29 19:18:00,
2013-05-29 12:24:00,77.8,54.1,29.83,NW,322,0.0,1.0,44,0.00,,,0.00,547,Wunderground v.1.15,2013-05-29 19:24:00,
2013-05-29 12:30:00,77.4,53.1,29.83,NE,38,0.0,0.0,43,0.00,,,0.00,272,Wunderground v.1.15,2013-05-29 19:30:00,
2013-05-29 12:36:00,77.0,54.0,29.83,North,360,0.0,1.0,45,0.00,,,0.00,1088,Wunderground v.1.15,2013-05-29 19:36:00,
2013-05-29 12:42:00,78.0,53.7,29.83,North,5,0.0,0.0,43,0.00,,,0.00,1065,Wunderground v.1.15,2013-05-29 19:42:00,
2013-05-29 12:48:00,78.4,54.0,29.83,ENE,70,1.0,2.0,43,0.00,,,0.00,1116,Wunderground v.1.15,2013-05-29 19:48:00,
2013-05-29 12:54:00,78.2,52.6,29.83,East,80,1.0,3.0,41,0.00,,,0.00,190,Wunderground v.1.15,2013-05-29 19:54:00,
2013-05-29 13:00:00,77.7,53.4,29.82,NE,54,1.0,1.0,43,0.00,,,0.00,1079,Wunderground v.1.15,2013-05-29 20:00:00,
2013-05-29 13:06:00,77.8,54.1,29.82,NE,53,0.0,7.0,44,0.00,,,0.00,1081,Wunderground v.1.15,2013-05-29 20:06:00,
2013-05-29 13:12:00,78.2,53.2,29.82,SE,126,0.0,1.0,42,0.00,,,0.00,1063,Wunderground v.1.15,2013-05-29 20:12:00,
2013-05-29 13:18:00,78.6,54.2,29.82,NNE,15,1.0,1.0,43,0.00,,,0.00,1037,Wunderground v.1.15,2013-05-29 20:18:00,
2013-05-29 13:24:00,78.7,54.3,29.82,NW,325,0.0,1.0,43,0.00,,,0.00,963,Wunderground v.1.15,2013-05-29 20:24:00,
2013-05-29 13:30:00,78.5,52.8,29.82,East,86,0.0,0.0,41,0.00,,,0.00,1069,Wunderground v.1.15,2013-05-29 20:30:00,
2013-05-29 13:36:00,78.7,53.0,29.81,East,94,1.0,1.0,41,0.00,,,0.00,1060,Wunderground v.1.15,2013-05-29 20:36:00,
2013-05-29 13:42:00,79.0,54.6,29.82,NNE,12,1.0,1.0,43,0.00,,,0.00,1014,Wunderground v.1.15,2013-05-29 20:42:00,
2013-05-29 13:48:00,79.2,52.8,29.81,WNW,292,0.0,1.0,40,0.00,,,0.00,1009,Wunderground v.1.15,2013-05-29 20:48:00,
2013-05-29 13:54:00,79.9,54.8,29.81,WNW,284,0.0,0.0,42,0.00,,,0.00,1041,Wunderground v.1.15,2013-05-29 20:54:00,
2013-05-29 14:00:00,80.5,53.3,29.81,NE,52,1.0,1.0,39,0.00,,,0.00,1005,Wunderground v.1.15,2013-05-29 21:00:00,
2013-05-29 14:06:00,80.7,52.7,29.81,ENE,67,1.0,6.0,38,0.00,,,0.00,983,Wunderground v.1.15,2013-05-29 21:06:00,
2013-05-29 14:12:00,80.4,53.2,29.80,NNE,24,0.0,0.0,39,0.00,,,0.00,974,Wunderground v.1.15,2013-05-29 21:12:00,
2013-05-29 14:18:00,80.9,55.0,29.80,East,86,0.0,1.0,41,0.00,,,0.00,979,Wunderground v.1.15,2013-05-29 21:18:00,
2013-05-29 14:24:00,81.4,54.8,29.80,East,101,0.0,1.0,40,0.00,,,0.00,984,Wunderground v.1.15,2013-05-29 21:24:00,
2013-05-29 14:30:00,81.7,53.6,29.81,ENE,69,0.0,0.0,38,0.00,,,0.00,954,Wunderground v.1.15,2013-05-29 21:30:00,
2013-05-29 14:36:00,81.7,54.3,29.80,WSW,237,0.0,1.0,39,0.00,,,0.00,947,Wunderground v.1.15,2013-05-29 21:36:00,
2013-05-29 14:42:00,82.1,55.4,29.80,SE,132,0.0,0.0,40,0.00,,,0.00,930,Wunderground v.1.15,2013-05-29 21:42:00,
2013-05-29 14:48:00,82.0,53.2,29.80,ENE,59,0.0,1.0,37,0.00,,,0.00,930,Wunderground v.1.15,2013-05-29 21:48:00,
2013-05-29 14:54:00,82.1,54.0,29.80,ESE,118,1.0,1.0,38,0.00,,,0.00,918,Wunderground v.1.15,2013-05-29 21:54:00,
2013-05-29 15:00:00,82.5,54.3,29.80,SE,128,0.0,1.0,38,0.00,,,0.00,911,Wunderground v.1.15,2013-05-29 22:00:00,
2013-05-29 15:06:00,82.6,53.7,29.80,ESE,119,1.0,4.0,37,0.00,,,0.00,904,Wunderground v.1.15,2013-05-29 22:06:00,
2013-05-29 15:12:00,82.3,53.4,29.80,SE,139,1.0,1.0,37,0.00,,,0.00,889,Wunderground v.1.15,2013-05-29 22:12:00,
2013-05-29 15:18:00,82.4,53.5,29.80,South,188,1.0,1.0,37,0.00,,,0.00,882,Wunderground v.1.15,2013-05-29 22:18:00,
2013-05-29 15:24:00,82.0,52.4,29.79,SE,126,0.0,2.0,36,0.00,,,0.00,868,Wunderground v.1.15,2013-05-29 22:24:00,
2013-05-29 15:30:00,82.0,52.4,29.79,SE,126,0.0,0.0,36,0.00,,,0.00,847,Wunderground v.1.15,2013-05-29 22:30:00,
2013-05-29 15:36:00,82.4,52.8,29.79,ESE,110,0.0,1.0,36,0.00,,,0.00,842,Wunderground v.1.15,2013-05-29 22:36:00,
2013-05-29 15:42:00,82.3,52.7,29.79,ESE,121,1.0,2.0,36,0.00,,,0.00,826,Wunderground v.1.15,2013-05-29 22:42:00,
2013-05-29 15:48:00,83.0,53.3,29.79,ESE,119,1.0,5.0,36,0.00,,,0.00,812,Wunderground v.1.15,2013-05-29 22:48:00,
2013-05-29 15:54:00,83.1,51.0,29.79,SW,215,2.0,2.0,33,0.00,,,0.00,796,Wunderground v.1.15,2013-05-29 22:54:00,
2013-05-29 16:00:00,82.7,51.5,29.79,South,188,0.0,0.0,34,0.00,,,0.00,784,Wunderground v.1.15,2013-05-29 23:00:00,
2013-05-29 16:06:00,83.1,51.8,29.78,SE,125,2.0,4.0,34,0.00,,,0.00,770,Wunderground v.1.15,2013-05-29 23:06:00,
2013-05-29 16:12:00,83.4,50.4,29.78,South,186,1.0,2.0,32,0.00,,,0.00,758,Wunderground v.1.15,2013-05-29 23:12:00,
2013-05-29 16:18:00,83.4,51.3,29.78,SE,142,0.0,5.0,33,0.00,,,0.00,744,Wunderground v.1.15,2013-05-29 23:18:00,
2013-05-29 16:24:00,83.6,50.6,29.77,ESE,122,1.0,1.0,32,0.00,,,0.00,724,Wunderground v.1.15,2013-05-29 23:24:00,
2013-05-29 16:30:00,83.8,50.8,29.77,ESE,107,0.0,1.0,32,0.00,,,0.00,707,Wunderground v.1.15,2013-05-29 23:30:00,
2013-05-29 16:36:00,83.9,49.1,29.77,SE,131,0.0,1.0,30,0.00,,,0.00,684,Wunderground v.1.15,2013-05-29 23:36:00,
2013-05-29 16:42:00,84.0,47.4,29.77,SE,146,1.0,9.0,28,0.00,,,0.00,666,Wunderground v.1.15,2013-05-29 23:42:00,
2013-05-29 16:48:00,83.8,48.1,29.77,ESE,106,1.0,9.0,29,0.00,,,0.00,647,Wunderground v.1.15,2013-05-29 23:48:00,
2013-05-29 16:54:00,83.9,47.3,29.77,NE,54,2.0,7.0,28,0.00,,,0.00,633,Wunderground v.1.15,2013-05-29 23:54:00,
2013-05-29 17:00:00,83.7,48.1,29.77,SE,125,2.0,2.0,29,0.00,,,0.00,575,Wunderground v.1.15,2013-05-30 00:00:00,
2013-05-29 17:06:00,83.1,46.6,29.77,SW,218,1.0,9.0,28,0.00,,,0.00,292,Wunderground v.1.15,2013-05-30 00:06:00,
2013-05-29 17:12:00,83.0,47.5,29.77,SSW,212,0.0,0.0,29,0.00,,,0.00,573,Wunderground v.1.15,2013-05-30 00:12:00,
2013-05-29 17:18:00,83.7,48.1,29.77,SE,139,1.0,4.0,29,0.00,,,0.00,554,Wunderground v.1.15,2013-05-30 00:18:00,
2013-05-29 17:24:00,84.1,47.5,29.77,SE,125,1.0,1.0,28,0.00,,,0.00,536,Wunderground v.1.15,2013-05-30 00:24:00,
2013-05-29 17:30:00,84.1,47.5,29.76,SE,146,0.0,0.0,28,0.00,,,0.00,517,Wunderground v.1.15,2013-05-30 00:30:00,
2013-05-29 17:36:00,83.9,48.2,29.76,SSE,160,0.0,0.0,29,0.00,,,0.00,496,Wunderground v.1.15,2013-05-30 00:36:00,
2013-05-29 17:42:00,84.1,47.5,29.76,SE,128,1.0,5.0,28,0.00,,,0.00,476,Wunderground v.1.15,2013-05-30 00:42:00,
2013-05-29 17:48:00,84.0,48.3,29.76,SE,134,2.0,5.0,29,0.00,,,0.00,454,Wunderground v.1.15,2013-05-30 00:48:00,
2013-05-29 17:54:00,83.5,47.9,29.76,East,99,3.0,8.0,29,0.00,,,0.00,434,Wunderground v.1.15,2013-05-30 00:54:00,
2013-05-29 18:00:00,83.4,47.8,29.76,South,172,2.0,2.0,29,0.00,,,0.00,417,Wunderground v.1.15,2013-05-30 01:00:00,
2013-05-29 18:06:00,83.8,48.1,29.76,East,100,1.0,9.0,29,0.00,,,0.00,396,Wunderground v.1.15,2013-05-30 01:06:00,
2013-05-29 18:12:00,83.9,48.2,29.76,ESE,103,1.0,1.0,29,0.00,,,0.00,376,Wunderground v.1.15,2013-05-30 01:12:00,
2013-05-29 18:18:00,83.8,47.2,29.76,SE,126,1.0,2.0,28,0.00,,,0.00,355,Wunderground v.1.15,2013-05-30 01:18:00,
2013-05-29 18:24:00,83.1,46.6,29.76,ESE,112,2.0,6.0,28,0.00,,,0.00,334,Wunderground v.1.15,2013-05-30 01:24:00,
2013-05-29 18:30:00,82.7,46.3,29.75,SE,134,1.0,1.0,28,0.00,,,0.00,315,Wunderground v.1.15,2013-05-30 01:30:00,
2013-05-29 18:36:00,82.6,46.2,29.75,ESE,111,1.0,3.0,28,0.00,,,0.00,294,Wunderground v.1.15,2013-05-30 01:36:00,
2013-05-29 18:42:00,82.6,46.2,29.76,ESE,106,0.0,1.0,28,0.00,,,0.00,276,Wunderground v.1.15,2013-05-30 01:42:00,
2013-05-29 18:48:00,82.3,46.9,29.76,ESE,114,1.0,6.0,29,0.00,,,0.00,74,Wunderground v.1.15,2013-05-30 01:48:00,
2013-05-29 18:54:00,81.9,49.1,29.76,ESE,117,1.0,1.0,32,0.00,,,0.00,105,Wunderground v.1.15,2013-05-30 01:54:00,
2013-05-29 19:00:00,81.6,49.7,29.76,ESE,109,0.0,0.0,33,0.00,,,0.00,202,Wunderground v.1.15,2013-05-30 02:00:00,
2013-05-29 19:06:00,81.5,54.2,29.76,SE,136,0.0,11.0,39,0.00,,,0.00,178,Wunderground v.1.15,2013-05-30 02:06:00,
2013-05-29 19:12:00,81.2,53.9,29.76,ESE,118,2.0,2.0,39,0.00,,,0.00,156,Wunderground v.1.15,2013-05-30 02:12:00,
2013-05-29 19:18:00,80.9,54.3,29.75,SE,135,1.0,2.0,40,0.00,,,0.00,134,Wunderground v.1.15,2013-05-30 02:18:00,
2013-05-29 19:24:00,80.7,55.5,29.76,ESE,113,1.0,7.0,42,0.00,,,0.00,111,Wunderground v.1.15,2013-05-30 02:24:00,
2013-05-29 19:30:00,80.7,54.8,29.76,South,175,1.0,1.0,41,0.00,,,0.00,90,Wunderground v.1.15,2013-05-30 02:30:00,
2013-05-29 19:36:00,80.4,55.2,29.76,South,173,0.0,1.0,42,0.00,,,0.00,72,Wunderground v.1.15,2013-05-30 02:36:00,
2013-05-29 19:42:00,79.8,54.7,29.76,SSW,193,0.0,0.0,42,0.00,,,0.00,56,Wunderground v.1.15,2013-05-30 02:42:00,
2013-05-29 19:48:00,79.5,55.0,29.76,South,184,0.0,0.0,43,0.00,,,0.00,42,Wunderground v.1.15,2013-05-30 02:48:00,
2013-05-29 19:54:00,79.5,55.7,29.76,South,184,0.0,0.0,44,0.00,,,0.00,30,Wunderground v.1.15,2013-05-30 02:54:00,
2013-05-29 20:00:00,79.3,55.5,29.76,South,184,0.0,0.0,44,0.00,,,0.00,19,Wunderground v.1.15,2013-05-30 03:00:00,
2013-05-29 20:06:00,78.8,55.7,29.76,South,184,0.0,9.0,45,0.00,,,0.00,14,Wunderground v.1.15,2013-05-30 03:06:00,
2013-05-29 20:12:00,78.1,55.6,29.76,South,184,0.0,0.0,46,0.00,,,0.00,12,Wunderground v.1.15,2013-05-30 03:12:00,
2013-05-29 20:18:00,77.2,55.4,29.76,South,184,0.0,0.0,47,0.00,,,0.00,9,Wunderground v.1.15,2013-05-30 03:18:00,
2013-05-29 20:24:00,76.2,55.1,29.76,South,184,0.0,0.0,48,0.00,,,0.00,5,Wunderground v.1.15,2013-05-30 03:24:00,
2013-05-29 20:30:00,75.3,54.3,29.77,SSW,194,0.0,0.0,48,0.00,,,0.00,0,Wunderground v.1.15,2013-05-30 03:30:00,
2013-05-29 20:36:00,74.7,53.1,29.77,SSW,201,0.0,0.0,47,0.00,,,0.00,0,Wunderground v.1.15,2013-05-30 03:36:00,
2013-05-29 20:42:00,74.5,51.8,29.77,SSW,213,0.0,0.0,45,0.00,,,0.00,0,Wunderground v.1.15,2013-05-30 03:42:00,
2013-05-29 20:48:00,74.2,52.7,29.77,SW,231,0.0,0.0,47,0.00,,,0.00,0,Wunderground v.1.15,2013-05-30 03:48:00,
2013-05-29 20:54:00,73.7,52.8,29.77,SW,231,0.0,0.0,48,0.00,,,0.00,0,Wunderground v.1.15,2013-05-30 03:54:00,
2013-05-29 21:00:00,73.2,52.9,29.77,SW,231,0.0,0.0,49,0.00,,,0.00,0,Wunderground v.1.15,2013-05-30 04:00:00,
2013-05-29 21:02:00,73.0,52.1,29.77,SW,231,0.0,9.0,48,0.00,,,0.00,0,Wunderground v.1.15,2013-05-30 04:02:00,
2013-05-29 21:04:00,72.8,52.5,29.77,SW,231,0.0,9.0,49,0.00,,,0.00,0,Wunderground v.1.15,2013-05-30 04:04:00,
2013-05-29 21:10:00,72.2,52.0,29.77,SW,232,0.0,0.0,49,0.00,,,0.00,0,Wunderground v.1.15,2013-05-30 04:10:00,
2013-05-29 21:14:00,71.7,52.1,29.78,SW,232,0.0,0.0,50,0.00,,,0.00,0,Wunderground v.1.15,2013-05-30 04:14:00,
2013-05-29 21:22:00,70.9,51.9,29.78,SW,232,0.0,0.0,51,0.00,,,0.00,0,Wunderground v.1.15,2013-05-30 04:22:00,
2013-05-29 21:26:00,70.6,52.1,29.78,SW,232,0.0,0.0,52,0.00,,,0.00,0,Wunderground v.1.15,2013-05-30 04:26:00,
2013-05-29 21:32:00,70.0,52.6,29.78,SW,232,0.0,0.0,54,0.00,,,0.00,0,Wunderground v.1.15,2013-05-30 04:32:00,
2013-05-29 21:38:00,69.5,51.6,29.78,SW,232,0.0,0.0,53,0.00,,,0.00,0,Wunderground v.1.15,2013-05-30 04:38:00,
2013-05-29 21:44:00,69.4,51.5,29.79,SW,232,0.0,0.0,53,0.00,,,0.00,0,Wunderground v.1.15,2013-05-30 04:44:00,
2013-05-29 21:50:00,69.3,51.4,29.79,SW,232,0.0,0.0,53,0.00,,,0.00,0,Wunderground v.1.15,2013-05-30 04:50:00,
2013-05-29 21:56:00,69.0,51.2,29.79,SW,232,0.0,0.0,53,0.00,,,0.00,0,Wunderground v.1.15,2013-05-30 04:56:00,
2013-05-29 22:02:00,68.8,50.5,29.79,SW,232,0.0,0.0,52,0.00,,,0.00,0,Wunderground v.1.15,2013-05-30 05:02:00,
2013-05-29 22:08:00,68.7,50.4,29.80,SW,232,0.0,0.0,52,0.00,,,0.00,0,Wunderground v.1.15,2013-05-30 05:08:00,
2013-05-29 22:14:00,68.5,50.2,29.80,WSW,238,0.0,0.0,52,0.00,,,0.00,0,Wunderground v.1.15,2013-05-30 05:14:00,
2013-05-29 22:20:00,68.4,50.1,29.80,WSW,238,0.0,0.0,52,0.00,,,0.00,0,Wunderground v.1.15,2013-05-30 05:20:00,
2013-05-29 22:26:00,68.4,49.6,29.80,WSW,238,0.0,0.0,51,0.00,,,0.00,0,Wunderground v.1.15,2013-05-30 05:26:00,
2013-05-29 22:32:00,68.4,50.1,29.80,SW,232,0.0,0.0,52,0.00,,,0.00,0,Wunderground v.1.15,2013-05-30 05:32:00,
2013-05-29 22:38:00,67.9,50.1,29.80,SW,232,0.0,0.0,53,0.00,,,0.00,0,Wunderground v.1.15,2013-05-30 05:38:00,
2013-05-29 22:44:00,67.4,50.2,29.80,SW,232,0.0,0.0,54,0.00,,,0.00,0,Wunderground v.1.15,2013-05-30 05:44:00,
2013-05-29 22:50:00,66.9,49.7,29.80,SW,229,0.0,0.0,54,0.00,,,0.00,0,Wunderground v.1.15,2013-05-30 05:50:00,
2013-05-29 22:56:00,66.2,49.6,29.80,SW,230,0.0,0.0,55,0.00,,,0.00,0,Wunderground v.1.15,2013-05-30 05:56:00,
2013-05-29 23:02:00,66.0,49.4,29.80,SW,230,0.0,0.0,55,0.00,,,0.00,0,Wunderground v.1.15,2013-05-30 06:02:00,
2013-05-29 23:08:00,66.0,49.4,29.80,SW,230,0.0,0.0,55,0.00,,,0.00,0,Wunderground v.1.15,2013-05-30 06:08:00,
2013-05-29 23:14:00,65.8,50.1,29.80,SW,230,0.0,0.0,57,0.00,,,0.00,0,Wunderground v.1.15,2013-05-30 06:14:00,
2013-05-29 23:20:00,65.3,50.1,29.80,SW,230,0.0,0.0,58,0.00,,,0.00,0,Wunderground v.1.15,2013-05-30 06:20:00,
2013-05-29 23:26:00,64.9,50.7,29.80,SW,230,0.0,0.0,60,0.00,,,0.00,0,Wunderground v.1.15,2013-05-30 06:26:00,
2013-05-29 23:32:00,64.4,51.1,29.80,SW,230,0.0,0.0,62,0.00,,,0.00,0,Wunderground v.1.15,2013-05-30 06:32:00,
2013-05-29 23:38:00,63.8,51.0,29.80,SW,230,0.0,0.0,63,0.00,,,0.00,0,Wunderground v.1.15,2013-05-30 06:38:00,
2013-05-29 23:44:00,63.4,50.6,29.80,SW,230,0.0,0.0,63,0.00,,,0.00,0,Wunderground v.1.15,2013-05-30 06:44:00,
2013-05-29 23:50:00,62.9,51.0,29.80,SW,230,0.0,0.0,65,0.00,,,0.00,0,Wunderground v.1.15,2013-05-30 06:50:00,
2013-05-29 23:56:00,62.4,50.5,29.80,SW,232,0.0,0.0,65,0.00,,,0.00,0,Wunderground v.1.15,2013-05-30 06:56:00,